createdAt,value
2023-01-23T00:02:36.771Z,22.45
2023-01-23T00:07:39.545Z,22.52
2023-01-23T00:12:42.560Z,22.56
2023-01-23T00:17:46.669Z,22.64
2023-01-23T00:22:49.479Z,22.68
2023-01-23T00:27:52.247Z,22.70
2023-01-23T00:32:57.155Z,22.70
2023-01-23T00:38:02.300Z,22.72
2023-01-23T00:43:05.060Z,22.74
2023-01-23T00:48:09.272Z,22.77
2023-01-23T00:53:12.888Z,22.76
2023-01-23T00:58:15.618Z,22.78
2023-01-23T01:03:20.453Z,22.77
2023-01-23T01:08:23.379Z,22.78
2023-01-23T01:13:26.126Z,22.80
2023-01-23T01:18:30.508Z,22.85
2023-01-23T01:23:33.245Z,22.83
2023-01-23T01:28:36.820Z,22.82
2023-01-23T01:33:41.199Z,22.84
2023-01-23T01:38:44.006Z,22.86
2023-01-23T01:43:46.834Z,22.86
2023-01-23T01:49:05.999Z,22.89
2023-01-23T01:54:12.229Z,22.93
2023-01-23T01:59:14.959Z,22.90
2023-01-23T02:04:19.099Z,22.87
2023-01-23T02:09:24.099Z,22.86
2023-01-23T02:14:27.038Z,22.79
2023-01-23T02:19:39.026Z,22.71
2023-01-23T02:24:43.949Z,22.53
2023-01-23T02:29:51.705Z,22.50
2023-01-23T02:34:55.657Z,22.39
2023-01-23T02:39:58.672Z,22.29
2023-01-23T02:45:03.448Z,22.16
2023-01-23T02:50:07.111Z,22.07
2023-01-23T02:55:10.212Z,21.95
2023-01-23T03:00:20.687Z,21.85
2023-01-23T03:05:23.755Z,21.77
2023-01-23T03:10:28.911Z,21.70
2023-01-23T03:15:33.035Z,21.65
2023-01-23T03:20:39.399Z,21.58
2023-01-23T03:25:44.183Z,21.52
2023-01-23T03:30:49.617Z,21.46
2023-01-23T03:35:52.460Z,21.42
2023-01-23T03:41:12.928Z,21.32
2023-01-23T03:46:17.414Z,21.25
2023-01-23T03:51:20.933Z,21.17
2023-01-23T03:56:23.839Z,21.11
2023-01-23T04:01:28.065Z,21.02
2023-01-23T04:06:31.974Z,20.96
2023-01-23T04:11:34.774Z,20.87
2023-01-23T04:16:39.416Z,20.75
2023-01-23T04:21:42.288Z,20.66
2023-01-23T04:26:45.717Z,20.66
2023-01-23T04:31:50.245Z,20.60
2023-01-23T04:36:53.449Z,20.54
2023-01-23T04:41:56.345Z,20.45
2023-01-23T04:47:06.666Z,20.44
2023-01-23T04:52:10.308Z,20.38
2023-01-23T04:57:17.055Z,20.32
2023-01-23T05:02:21.238Z,20.27
2023-01-23T05:07:24.321Z,20.22
2023-01-23T05:12:40.602Z,20.20
2023-01-23T05:17:45.873Z,20.16
2023-01-23T05:22:53.192Z,20.11
2023-01-23T05:28:06.711Z,20.08
2023-01-23T05:33:11.181Z,20.03
2023-01-23T05:38:14.152Z,19.97
2023-01-23T05:43:18.986Z,19.94
2023-01-23T05:48:49.177Z,19.87
2023-01-23T05:53:52.184Z,19.84
2023-01-23T05:58:55.096Z,19.81
2023-01-23T06:04:13.577Z,19.77
2023-01-23T06:09:29.848Z,19.73
2023-01-23T06:14:32.987Z,19.71
2023-01-23T06:19:37.223Z,19.67
2023-01-23T06:24:40.993Z,19.65
2023-01-23T06:29:43.823Z,19.63
2023-01-23T06:34:48.089Z,19.58
2023-01-23T06:39:51.738Z,19.57
2023-01-23T06:44:54.594Z,19.54
2023-01-23T06:50:01.961Z,19.51
2023-01-23T06:55:07.893Z,19.48
2023-01-23T07:00:12.526Z,19.45
2023-01-23T07:05:17.174Z,19.41
2023-01-23T07:10:23.014Z,19.39
2023-01-23T07:15:25.919Z,19.35
2023-01-23T07:20:30.213Z,19.33
2023-01-23T07:25:35.398Z,19.30
2023-01-23T07:30:38.220Z,19.27
2023-01-23T07:35:42.470Z,19.26
2023-01-23T07:40:45.438Z,19.24
2023-01-23T07:45:48.247Z,19.20
2023-01-23T07:50:52.383Z,17.19
2023-01-23T07:55:55.228Z,16.28
2023-01-23T08:00:58.058Z,16.61
2023-01-23T08:06:02.226Z,17.17
2023-01-23T08:11:05.782Z,17.73
2023-01-23T08:16:09.722Z,18.23
2023-01-23T08:21:15.063Z,18.60
2023-01-23T08:26:18.319Z,18.82
2023-01-23T08:31:21.177Z,18.99
2023-01-23T08:36:25.547Z,19.07
2023-01-23T08:41:28.337Z,19.19
2023-01-23T08:46:31.088Z,19.24
2023-01-23T08:51:35.248Z,19.27
2023-01-23T08:56:37.993Z,19.29
2023-01-23T09:01:40.760Z,19.29
2023-01-23T09:06:45.027Z,19.31
2023-01-23T09:11:47.876Z,19.31
2023-01-23T09:16:50.658Z,19.31
2023-01-23T09:21:56.935Z,19.32
2023-01-23T09:26:59.715Z,19.31
2023-01-23T09:32:03.075Z,19.32
2023-01-23T09:37:07.246Z,19.29
2023-01-23T09:42:11.401Z,19.29
2023-01-23T09:47:15.813Z,19.30
2023-01-23T09:52:20.797Z,19.27
2023-01-23T09:57:24.997Z,19.23
2023-01-23T10:02:27.855Z,19.22
2023-01-23T10:07:54.205Z,19.19
2023-01-23T10:12:59.824Z,19.20
2023-01-23T10:18:08.342Z,19.20
2023-01-23T10:23:19.374Z,19.20
2023-01-23T10:28:27.880Z,19.21
2023-01-23T10:33:36.996Z,19.21
2023-01-23T10:38:46.216Z,19.20
2023-01-23T10:43:50.696Z,19.19
2023-01-23T10:48:53.951Z,19.22
2023-01-23T10:54:16.974Z,19.24
2023-01-23T10:59:36.217Z,19.24
2023-01-23T11:04:38.956Z,19.24
2023-01-23T11:09:51.844Z,19.26
2023-01-23T11:15:12.998Z,19.26
2023-01-23T11:20:24.510Z,19.25
2023-01-23T11:25:30.508Z,19.27
2023-01-23T11:30:39.529Z,19.29
2023-01-23T11:35:51.223Z,19.27
2023-01-23T11:40:55.403Z,19.26
2023-01-23T11:46:20.506Z,19.24
2023-01-23T11:51:26.144Z,19.23
2023-01-23T11:56:44.872Z,19.24
2023-01-23T12:02:03.040Z,19.23
2023-01-23T12:07:17.609Z,19.23
2023-01-23T12:12:26.620Z,19.24
2023-01-23T12:17:33.767Z,19.25
2023-01-23T12:22:43.167Z,19.25
2023-01-23T12:27:48.137Z,19.25
2023-01-23T12:32:56.555Z,19.23
2023-01-23T12:38:19.308Z,19.27
2023-01-23T12:43:30.948Z,19.25
2023-01-23T12:48:36.025Z,19.25
2023-01-23T12:53:39.366Z,16.81
2023-01-23T12:58:45.833Z,15.76
2023-01-23T13:03:56.717Z,16.63
2023-01-23T13:09:16.661Z,17.40
2023-01-23T13:14:32.878Z,17.96
2023-01-23T13:19:59.104Z,18.34
2023-01-23T13:25:12.571Z,18.58
2023-01-23T13:30:41.833Z,18.85
2023-01-23T13:35:55.905Z,19.02
2023-01-23T13:41:29.831Z,19.19
2023-01-23T14:24:54.931Z,19.71
2023-01-23T14:29:58.660Z,19.69
2023-01-23T14:35:03.023Z,19.67
2023-01-23T14:40:12.139Z,19.66
2023-01-23T14:45:15.423Z,19.63
2023-01-23T14:50:20.678Z,19.63
2023-01-23T14:55:29.829Z,19.59
2023-01-23T15:00:35.692Z,19.61
2023-01-23T15:05:41.611Z,19.57
2023-01-23T15:10:46.134Z,19.60
2023-01-23T15:15:52.171Z,19.62
2023-01-23T15:20:56.695Z,19.63
2023-01-23T15:26:19.640Z,19.64
2023-01-23T15:31:28.405Z,19.64
2023-01-23T15:36:33.068Z,19.62
2023-01-23T15:41:40.510Z,19.61
2023-01-23T15:46:43.545Z,19.62
2023-01-23T15:51:52.703Z,19.63
2023-01-23T15:57:06.699Z,19.62
2023-01-23T16:02:29.586Z,19.62
2023-01-23T16:07:35.339Z,19.64
2023-01-23T16:12:40.002Z,19.65
2023-01-23T16:17:42.777Z,19.67
2023-01-23T16:22:47.331Z,19.67
2023-01-23T16:27:50.135Z,19.68
2023-01-23T16:32:52.946Z,19.69
2023-01-23T16:37:57.073Z,19.70
2023-01-23T16:43:02.608Z,19.74
2023-01-23T16:48:07.457Z,19.79
2023-01-23T16:53:16.179Z,19.82
2023-01-23T16:58:20.162Z,19.86
2023-01-23T17:03:23.651Z,19.91
2023-01-23T17:08:27.886Z,20.01
2023-01-23T17:13:30.909Z,20.08
2023-01-23T17:18:34.802Z,20.17
2023-01-23T17:23:38.990Z,20.17
2023-01-23T17:28:41.834Z,20.15
2023-01-23T17:33:44.879Z,20.15
2023-01-23T17:38:49.309Z,20.16
2023-01-23T17:43:52.636Z,20.19
2023-01-23T17:48:55.727Z,20.20
2023-01-23T17:53:59.925Z,20.21
2023-01-23T17:59:02.818Z,20.25
2023-01-23T18:04:12.445Z,20.32
2023-01-23T18:09:16.648Z,20.29
2023-01-23T18:14:29.838Z,20.39
2023-01-23T18:19:33.212Z,20.40
2023-01-23T18:24:38.423Z,20.44
2023-01-23T18:29:47.459Z,20.47
2023-01-23T18:34:52.059Z,20.53
2023-01-23T18:40:02.418Z,20.59
2023-01-23T18:45:07.908Z,20.63
2023-01-23T18:50:17.341Z,20.62
2023-01-23T18:55:25.698Z,20.64
2023-01-23T19:00:29.837Z,20.69
2023-01-23T19:05:33.655Z,20.68
2023-01-23T19:10:48.147Z,20.69
2023-01-23T19:15:55.532Z,20.69
2023-01-23T19:21:01.467Z,20.74
2023-01-23T19:26:06.425Z,20.73
2023-01-23T19:31:14.239Z,20.77
2023-01-23T19:36:17.290Z,20.80
2023-01-23T19:41:22.690Z,20.81
2023-01-23T19:46:26.700Z,20.83
2023-01-23T19:51:30.585Z,20.76
2023-01-23T19:56:34.809Z,20.86
2023-01-23T20:01:40.081Z,20.87
2023-01-23T20:06:45.090Z,20.90
2023-01-23T20:11:49.285Z,20.92
2023-01-23T20:16:52.216Z,20.93
2023-01-23T20:21:55.058Z,20.95
2023-01-23T20:26:59.132Z,20.96
2023-01-23T20:32:01.959Z,20.98
2023-01-23T20:37:04.743Z,20.96
2023-01-23T20:42:10.662Z,21.02
2023-01-23T20:47:14.103Z,20.97
2023-01-23T20:52:34.619Z,20.99
2023-01-23T20:57:56.320Z,20.95
2023-01-23T21:02:59.099Z,20.99
2023-01-23T21:08:01.952Z,21.01
2023-01-23T21:13:08.063Z,21.01
2023-01-23T21:18:10.790Z,20.99
2023-01-23T21:23:13.535Z,20.97
2023-01-23T21:28:17.779Z,21.00
2023-01-23T21:33:20.597Z,21.01
2023-01-23T21:38:23.429Z,21.01
2023-01-23T21:43:27.625Z,21.02
2023-01-23T21:48:30.433Z,21.02
2023-01-23T21:53:33.228Z,21.04
2023-01-23T21:58:37.447Z,21.06
2023-01-23T22:03:40.334Z,21.07
2023-01-23T22:08:43.236Z,21.06
2023-01-23T22:13:47.522Z,21.00
2023-01-23T22:18:50.324Z,21.00
2023-01-23T22:23:53.132Z,20.98
2023-01-23T22:28:57.344Z,20.94
2023-01-23T22:34:00.174Z,20.88
2023-01-23T22:39:02.978Z,20.91
2023-01-23T22:44:07.236Z,20.88
2023-01-23T22:49:10.282Z,20.83
2023-01-23T22:54:13.045Z,20.77
2023-01-23T22:59:17.177Z,20.74
2023-01-23T23:04:19.956Z,20.74
2023-01-23T23:09:22.793Z,20.72
2023-01-23T23:14:26.919Z,20.75
2023-01-23T23:19:29.705Z,20.71
2023-01-23T23:24:32.434Z,20.70
2023-01-23T23:29:36.817Z,20.69
2023-01-23T23:34:39.593Z,20.69
2023-01-23T23:39:42.358Z,20.67
2023-01-23T23:44:46.481Z,20.65
2023-01-23T23:49:49.382Z,20.69
2023-01-23T23:54:52.142Z,20.69
2023-01-23T23:59:56.254Z,20.71
